Time;durP1;ratioP1;P1;durP2;ratioP2;P2;SDS_P1;SDS_P2;PMS_P1;PMS_P2;Temp;Humidity;BMP_temperature;BMP_pressure;BME280_temperature;BME280_humidity;BME280_pressure;Samples;Min_cycle;Max_cycle;Signal;HPM_P1;HPM_P2
2022/06/16 00:00:15;;;;;;;8.40;3.75;;;19.90;85.90;;;;;;4955892;28;20054;-77
2022/06/16 00:02:44;;;;;;;4.82;3.50;;;19.90;86.20;;;;;;4957063;28;20031;-78
2022/06/16 00:05:12;;;;;;;5.97;3.88;;;19.90;86.10;;;;;;4962039;28;20118;-77
2022/06/16 00:07:39;;;;;;;5.13;3.55;;;19.80;86.00;;;;;;4956722;28;20038;-77
2022/06/16 00:10:06;;;;;;;6.25;3.67;;;19.80;85.80;;;;;;4960687;28;20062;-77
2022/06/16 00:12:32;;;;;;;6.53;4.03;;;19.80;85.60;;;;;;4955385;28;20019;-77
2022/06/16 00:14:58;;;;;;;6.25;4.13;;;19.80;85.50;;;;;;4955588;28;20038;-77
2022/06/16 00:17:24;;;;;;;6.15;3.70;;;19.80;85.50;;;;;;4959434;28;20055;-76
2022/06/16 00:19:50;;;;;;;4.82;3.65;;;19.80;85.00;;;;;;4971071;28;20031;-77
2022/06/16 00:22:15;;;;;;;5.93;4.07;;;19.80;85.00;;;;;;4960383;28;20563;-77
2022/06/16 00:24:41;;;;;;;7.43;3.60;;;19.80;84.70;;;;;;4954117;28;20027;-77
2022/06/16 00:27:07;;;;;;;5.00;3.45;;;19.80;84.50;;;;;;4950353;28;20094;-76
2022/06/16 00:29:34;;;;;;;6.47;3.65;;;19.80;84.40;;;;;;4958643;28;20023;-76
2022/06/16 00:32:00;;;;;;;4.50;3.72;;;19.70;84.30;;;;;;4967324;28;20035;-76
2022/06/16 00:34:26;;;;;;;11.07;3.55;;;19.70;84.20;;;;;;4958080;28;20077;-76
2022/06/16 00:36:52;;;;;;;6.75;3.80;;;19.70;84.30;;;;;;4956774;28;20051;-76
2022/06/16 00:39:18;;;;;;;4.93;3.00;;;19.70;85.00;;;;;;4955446;28;20113;-76
2022/06/16 00:41:44;;;;;;;6.57;3.40;;;19.60;85.20;;;;;;4964674;28;20023;-77
2022/06/16 00:44:37;;;;;;;7.65;3.67;;;19.60;85.30;;;;;;4955237;28;20031;-76
2022/06/16 00:47:03;;;;;;;5.57;3.92;;;19.50;85.50;;;;;;4954282;28;20026;-77
2022/06/16 00:49:29;;;;;;;5.63;4.47;;;19.50;85.50;;;;;;4947612;28;20027;-77
2022/06/16 00:52:02;;;;;;;5.60;3.85;;;19.40;85.60;;;;;;4953820;28;20042;-77
2022/06/16 00:54:36;;;;;;;6.25;4.00;;;19.40;85.80;;;;;;4957957;28;20479;-76
2022/06/16 00:57:07;;;;;;;4.57;3.67;;;19.40;86.50;;;;;;4953202;28;20495;-77
2022/06/16 00:59:35;;;;;;;6.47;3.85;;;19.40;87.10;;;;;;4955306;28;20035;-77
2022/06/16 01:02:03;;;;;;;6.22;3.33;;;19.30;87.60;;;;;;4954616;28;20074;-77
2022/06/16 01:07:14;;;;;;;4.07;3.53;;;19.20;87.70;;;;;;4948682;28;20078;-76
2022/06/16 01:09:42;;;;;;;14.57;4.20;;;19.10;88.00;;;;;;4965430;28;20118;-76
2022/06/16 01:15:13;;;;;;;9.05;4.75;;;19.10;88.90;;;;;;4958155;28;20034;-76
2022/06/16 01:17:44;;;;;;;8.38;4.45;;;19.00;89.60;;;;;;4955133;28;20026;-76
2022/06/16 01:20:31;;;;;;;6.65;4.78;;;18.90;90.30;;;;;;4952524;28;20119;-76
2022/06/16 01:23:24;;;;;;;6.68;4.53;;;18.90;90.50;;;;;;4967908;28;20106;-77
2022/06/16 01:26:08;;;;;;;7.32;4.78;;;18.80;90.90;;;;;;4944642;28;20027;-77
2022/06/16 01:29:19;;;;;;;8.35;4.95;;;18.80;91.40;;;;;;4953095;28;20027;-77
2022/06/16 01:31:56;;;;;;;5.78;4.20;;;18.70;91.00;;;;;;4951594;28;20089;-78
2022/06/16 01:34:43;;;;;;;7.57;4.25;;;18.70;90.60;;;;;;4959450;28;20082;-76
2022/06/16 01:37:09;;;;;;;5.78;4.00;;;18.60;90.80;;;;;;4951640;28;20027;-76
2022/06/16 01:39:57;;;;;;;5.55;3.72;;;18.60;90.50;;;;;;4949972;28;20047;-77
2022/06/16 01:42:54;;;;;;;7.03;3.80;;;18.60;90.40;;;;;;4963069;28;20028;-76
2022/06/16 01:45:42;;;;;;;5.07;3.33;;;18.60;90.40;;;;;;4948398;28;20595;-76
2022/06/16 01:48:11;;;;;;;7.55;3.95;;;18.50;90.40;;;;;;4954769;28;20050;-76
2022/06/16 01:51:02;;;;;;;5.57;4.00;;;18.50;90.40;;;;;;4958260;28;20069;-77
2022/06/16 01:53:34;;;;;;;5.53;3.78;;;18.50;90.50;;;;;;4936354;28;20035;-77
2022/06/16 01:56:17;;;;;;;4.72;3.83;;;18.50;90.40;;;;;;4953812;28;20073;-75
2022/06/16 01:58:48;;;;;;;6.13;3.60;;;18.50;90.40;;;;;;4949978;28;20507;-76
2022/06/16 02:01:19;;;;;;;7.05;3.80;;;18.40;90.50;;;;;;4971049;28;20111;-77
2022/06/16 02:03:55;;;;;;;5.30;3.60;;;18.40;90.40;;;;;;4951667;28;20054;-76
2022/06/16 02:06:30;;;;;;;4.60;3.50;;;18.40;90.40;;;;;;4946546;28;20038;-76
2022/06/16 02:09:01;;;;;;;5.00;4.00;;;18.40;90.60;;;;;;4951218;28;20554;-77
2022/06/16 02:11:32;;;;;;;6.40;3.97;;;18.40;90.70;;;;;;4952367;28;20123;-76
2022/06/16 02:14:26;;;;;;;5.55;3.28;;;18.40;90.70;;;;;;4959911;28;20094;-75
2022/06/16 02:16:53;;;;;;;6.00;4.35;;;18.40;90.60;;;;;;4946617;28;20051;-76
2022/06/16 02:19:22;;;;;;;7.60;4.40;;;18.30;90.60;;;;;;4957452;28;20087;-76
2022/06/16 02:21:50;;;;;;;4.68;3.25;;;18.30;90.70;;;;;;4955569;28;20027;-77
2022/06/16 02:24:20;;;;;;;4.65;3.58;;;18.30;90.70;;;;;;4956279;28;20054;-77
2022/06/16 02:26:48;;;;;;;7.43;3.42;;;18.40;90.70;;;;;;4972428;28;20565;-77
2022/06/16 02:29:30;;;;;;;5.70;3.60;;;18.40;90.60;;;;;;4952474;28;20074;-77
2022/06/16 02:32:17;;;;;;;7.03;3.83;;;18.30;90.50;;;;;;4954805;28;20028;-77
2022/06/16 02:35:21;;;;;;;5.40;3.88;;;18.30;90.60;;;;;;4955487;28;20082;-77
2022/06/16 02:38:00;;;;;;;4.60;3.33;;;18.30;90.50;;;;;;4959011;28;20028;-78
2022/06/16 02:40:47;;;;;;;6.55;4.05;;;18.30;90.40;;;;;;4951002;28;20039;-77
2022/06/16 02:43:39;;;;;;;7.47;4.72;;;18.30;90.70;;;;;;4971090;28;20147;-77
2022/06/16 02:46:30;;;;;;;9.50;5.90;;;18.30;91.30;;;;;;4959179;28;20026;-76
2022/06/16 02:49:09;;;;;;;7.50;4.82;;;18.30;92.20;;;;;;4951203;28;21411;-77
2022/06/16 02:52:07;;;;;;;8.07;4.72;;;18.20;92.50;;;;;;4973126;28;20043;-77
2022/06/16 02:55:02;;;;;;;8.05;4.95;;;18.00;92.90;;;;;;4958165;28;20093;-77
2022/06/16 02:57:31;;;;;;;5.00;4.22;;;17.90;93.10;;;;;;4956562;28;20031;-77
2022/06/16 03:00:07;;;;;;;6.63;4.30;;;17.80;93.60;;;;;;4956984;28;20094;-77
2022/06/16 03:02:36;;;;;;;4.63;3.80;;;17.80;93.60;;;;;;4958345;28;20024;-77
2022/06/16 03:05:04;;;;;;;4.57;3.50;;;17.70;93.40;;;;;;4954413;28;20031;-77
2022/06/16 03:07:31;;;;;;;5.53;3.72;;;17.70;93.20;;;;;;4959498;28;20023;-77
2022/06/16 03:09:57;;;;;;;4.20;3.10;;;17.70;92.70;;;;;;4962644;28;20059;-77
2022/06/16 03:12:23;;;;;;;4.72;3.55;;;17.70;92.80;;;;;;4964928;28;20639;-78
2022/06/16 03:14:48;;;;;;;6.03;3.88;;;17.60;92.70;;;;;;4956294;28;20692;-77
2022/06/16 03:17:14;;;;;;;7.82;3.75;;;17.60;92.70;;;;;;4947740;28;20037;-77
2022/06/16 03:19:40;;;;;;;5.55;3.90;;;17.70;92.70;;;;;;4960610;28;20023;-77
2022/06/16 03:22:06;;;;;;;4.50;3.90;;;17.70;92.60;;;;;;4954458;28;20607;-78
2022/06/16 03:24:32;;;;;;;6.97;3.55;;;17.70;92.50;;;;;;4957020;28;20099;-78
2022/06/16 03:26:58;;;;;;;4.95;3.83;;;17.80;92.60;;;;;;4977739;28;20035;-76
2022/06/16 03:29:24;;;;;;;6.15;3.78;;;17.80;92.70;;;;;;4959492;28;20632;-77
2022/06/16 03:31:49;;;;;;;5.25;3.80;;;17.80;92.80;;;;;;4959855;28;20035;-79
2022/06/16 03:34:15;;;;;;;4.28;3.42;;;17.70;92.80;;;;;;4962815;28;20023;-78
2022/06/16 03:36:41;;;;;;;6.35;3.78;;;17.80;92.90;;;;;;4979635;28;20041;-77
2022/06/16 03:39:06;;;;;;;6.18;3.72;;;17.70;93.00;;;;;;4960256;28;20481;-78
2022/06/16 03:41:33;;;;;;;5.63;3.83;;;17.80;93.00;;;;;;4962779;28;20047;-78
2022/06/16 03:43:59;;;;;;;6.28;4.13;;;17.80;92.90;;;;;;4964212;28;20472;-79
2022/06/16 03:46:25;;;;;;;5.82;3.80;;;17.80;92.90;;;;;;4958715;28;20023;-78
2022/06/16 03:48:51;;;;;;;4.90;4.18;;;17.80;93.10;;;;;;4963662;28;20037;-78
2022/06/16 03:51:17;;;;;;;4.50;3.75;;;17.80;93.20;;;;;;4964110;28;20458;-78
2022/06/16 03:53:42;;;;;;;5.50;3.95;;;17.80;93.10;;;;;;4961335;28;20496;-79
2022/06/16 03:56:10;;;;;;;4.50;3.80;;;17.90;93.10;;;;;;4966145;28;20050;-79
2022/06/16 03:58:35;;;;;;;11.25;4.18;;;18.00;93.00;;;;;;4965179;28;20023;-79
2022/06/16 04:01:01;;;;;;;6.88;4.22;;;18.00;93.00;;;;;;4960851;28;20070;-78
2022/06/16 04:06:11;;;;;;;9.32;4.60;;;18.20;93.40;;;;;;4960391;28;20108;-78
2022/06/16 04:08:38;;;;;;;7.90;4.15;;;18.20;93.40;;;;;;4959733;28;20114;-78
2022/06/16 04:11:26;;;;;;;5.55;3.40;;;18.20;93.40;;;;;;4955966;28;20553;-78
2022/06/16 04:13:57;;;;;;;10.15;5.75;;;18.20;93.30;;;;;;4963463;28;20496;-78
2022/06/16 04:16:23;;;;;;;9.35;4.97;;;18.20;93.30;;;;;;4953978;28;20032;-78
2022/06/16 04:18:49;;;;;;;6.53;4.97;;;18.20;93.50;;;;;;4954030;28;20046;-78
2022/06/16 04:21:15;;;;;;;7.00;4.82;;;18.20;93.70;;;;;;4956550;28;20111;-77
2022/06/16 04:23:41;;;;;;;9.95;5.47;;;18.20;93.70;;;;;;4956726;28;20106;-78
2022/06/16 04:26:06;;;;;;;7.75;5.70;;;18.20;93.90;;;;;;4960126;28;20376;-77
2022/06/16 04:28:32;;;;;;;8.63;5.63;;;18.20;94.20;;;;;;4961429;28;20030;-76
2022/06/16 04:30:59;;;;;;;7.47;5.72;;;18.20;94.00;;;;;;4953596;28;20031;-77
2022/06/16 04:33:25;;;;;;;11.05;5.72;;;18.30;94.00;;;;;;4953999;28;20093;-77
2022/06/16 04:35:52;;;;;;;9.60;5.15;;;18.40;94.10;;;;;;4958375;28;20039;-77
2022/06/16 04:38:18;;;;;;;11.27;5.32;;;18.40;94.00;;;;;;4951245;28;20143;-78
2022/06/16 04:40:44;;;;;;;6.80;5.40;;;18.50;93.90;;;;;;4959231;28;20409;-77
2022/06/16 04:43:14;;;;;;;6.75;5.45;;;18.60;93.90;;;;;;4973420;28;20023;-77
2022/06/16 04:45:40;;;;;;;7.10;5.28;;;18.60;93.70;;;;;;4952980;28;20019;-77
2022/06/16 04:48:07;;;;;;;7.45;5.57;;;18.70;93.50;;;;;;4961708;28;20031;-77
2022/06/16 04:50:33;;;;;;;9.35;5.55;;;18.70;93.50;;;;;;4955530;28;20042;-77
2022/06/16 04:52:59;;;;;;;7.75;5.40;;;18.70;93.50;;;;;;4967009;28;20126;-78
2022/06/16 04:55:25;;;;;;;8.15;4.38;;;18.80;93.50;;;;;;4956288;28;20165;-78
2022/06/16 04:57:51;;;;;;;5.70;4.60;;;18.90;93.40;;;;;;4958990;28;20035;-77
2022/06/16 05:00:17;;;;;;;7.03;4.18;;;18.90;93.20;;;;;;4960340;28;20030;-77
2022/06/16 05:02:43;;;;;;;6.22;4.43;;;18.90;93.20;;;;;;4955396;28;20118;-77
2022/06/16 05:05:08;;;;;;;8.88;4.20;;;19.00;93.20;;;;;;4956877;28;20031;-77
2022/06/16 05:07:34;;;;;;;5.53;3.80;;;19.10;93.00;;;;;;4966624;28;20027;-77
2022/06/16 05:10:00;;;;;;;4.53;3.70;;;19.20;92.90;;;;;;4956114;28;20035;-78
2022/06/16 05:12:26;;;;;;;4.85;3.83;;;19.20;92.80;;;;;;4954214;28;20035;-77
2022/06/16 05:14:52;;;;;;;8.27;4.03;;;19.40;92.70;;;;;;4956244;28;20037;-77
2022/06/16 05:17:18;;;;;;;5.65;3.85;;;19.60;92.60;;;;;;4959872;28;20050;-77
2022/06/16 05:19:44;;;;;;;5.80;3.58;;;19.70;92.30;;;;;;4957366;28;20042;-78
2022/06/16 05:22:09;;;;;;;6.88;3.65;;;19.80;92.10;;;;;;4956773;28;20062;-77
2022/06/16 05:24:35;;;;;;;4.60;3.67;;;19.90;92.00;;;;;;4971377;28;20023;-78
2022/06/16 05:27:03;;;;;;;5.43;3.90;;;20.00;91.90;;;;;;4953930;28;20059;-78
2022/06/16 05:29:29;;;;;;;6.40;3.78;;;20.00;92.10;;;;;;4958300;28;20446;-78
2022/06/16 05:31:55;;;;;;;4.97;3.70;;;20.00;92.10;;;;;;4961434;28;20031;-77
2022/06/16 05:34:21;;;;;;;5.63;3.78;;;20.00;92.10;;;;;;4953267;28;20523;-77
2022/06/16 05:36:47;;;;;;;5.97;4.00;;;20.00;92.10;;;;;;4963001;28;20035;-77
2022/06/16 05:39:13;;;;;;;5.45;4.05;;;20.00;92.10;;;;;;4958412;28;20019;-77
2022/06/16 05:41:39;;;;;;;7.63;4.47;;;20.00;92.00;;;;;;4954989;28;20042;-77
2022/06/16 05:44:06;;;;;;;6.97;3.75;;;20.20;91.90;;;;;;4953677;28;20059;-78
2022/06/16 05:46:32;;;;;;;6.28;3.88;;;20.30;91.70;;;;;;4959777;28;21396;-76
2022/06/16 05:48:57;;;;;;;6.88;3.63;;;20.40;91.70;;;;;;4955186;28;20071;-78
2022/06/16 05:51:23;;;;;;;5.75;3.90;;;20.60;91.50;;;;;;4957977;28;20085;-78
2022/06/16 05:53:50;;;;;;;6.25;4.05;;;20.70;91.30;;;;;;4964272;28;20027;-78
2022/06/16 05:56:16;;;;;;;8.00;4.15;;;20.70;91.10;;;;;;4955287;28;20031;-77
2022/06/16 05:58:42;;;;;;;7.28;4.70;;;20.80;91.00;;;;;;4960235;28;22202;-78
2022/06/16 06:01:10;;;;;;;7.82;5.03;;;20.80;90.80;;;;;;4968596;28;20031;-78
2022/06/16 06:03:37;;;;;;;6.80;4.88;;;20.80;90.80;;;;;;4958148;28;20019;-77
2022/06/16 06:06:03;;;;;;;9.30;5.43;;;20.80;90.90;;;;;;4978805;28;20034;-78
2022/06/16 06:16:45;;;;;;;7.95;4.03;;;21.10;90.70;;;;;;4963642;28;20045;-78
2022/06/16 06:19:28;;;;;;;6.20;3.78;;;21.10;90.60;;;;;;4962009;28;20027;-78
2022/06/16 06:22:03;;;;;;;8.95;3.75;;;21.10;90.60;;;;;;4962107;28;20484;-78
2022/06/16 06:24:40;;;;;;;6.40;4.03;;;21.10;90.50;;;;;;4963410;28;20068;-77
2022/06/16 06:27:26;;;;;;;6.60;3.78;;;21.10;90.50;;;;;;4970334;28;20479;-79
2022/06/16 06:29:51;;;;;;;6.25;4.00;;;21.30;90.60;;;;;;4946948;28;20039;-77
2022/06/16 06:32:19;;;;;;;6.15;4.28;;;21.50;90.20;;;;;;4969078;28;20034;-77
2022/06/16 06:34:51;;;;;;;8.18;4.05;;;21.60;90.30;;;;;;4954766;28;20067;-77
2022/06/16 06:37:21;;;;;;;5.13;4.60;;;21.70;89.70;;;;;;4956584;28;20038;-77
2022/06/16 06:39:47;;;;;;;5.82;4.30;;;21.70;89.00;;;;;;4956989;28;20065;-78
2022/06/16 06:42:13;;;;;;;9.15;4.15;;;21.80;89.30;;;;;;4957766;28;20045;-71
2022/06/16 06:44:39;;;;;;;6.47;3.88;;;21.90;89.50;;;;;;4970885;28;20031;-68
2022/06/16 06:47:05;;;;;;;4.70;3.65;;;21.90;89.20;;;;;;4960012;28;20023;-70
2022/06/16 06:49:31;;;;;;;6.85;4.00;;;21.80;89.50;;;;;;4953266;28;20142;-71
2022/06/16 06:51:57;;;;;;;7.90;3.92;;;22.00;89.80;;;;;;4957421;28;20031;-69
2022/06/16 06:54:23;;;;;;;9.20;4.47;;;22.10;90.00;;;;;;4962153;28;20521;-81
2022/06/16 06:56:50;;;;;;;8.65;4.80;;;22.20;90.00;;;;;;4968761;28;20082;-76
2022/06/16 06:59:18;;;;;;;8.23;4.10;;;22.50;88.80;;;;;;4974053;28;20027;-79
2022/06/16 07:01:48;;;;;;;5.63;4.40;;;22.70;88.00;;;;;;4959094;28;20033;-77
2022/06/16 07:04:13;;;;;;;7.07;3.95;;;22.80;87.60;;;;;;4958059;28;20535;-77
2022/06/16 07:06:40;;;;;;;5.93;4.10;;;22.80;87.60;;;;;;4963176;28;20031;-77
2022/06/16 07:09:06;;;;;;;6.28;4.57;;;22.80;88.10;;;;;;4959016;28;20019;-77
2022/06/16 07:11:32;;;;;;;11.07;4.43;;;22.90;88.00;;;;;;4952899;28;20033;-77
2022/06/16 07:13:58;;;;;;;9.30;4.60;;;22.90;88.10;;;;;;4962628;28;20484;-77
2022/06/16 07:16:24;;;;;;;5.65;4.43;;;23.00;88.20;;;;;;4968460;28;20034;-76
2022/06/16 07:18:50;;;;;;;5.32;4.07;;;23.10;88.00;;;;;;4964284;28;20045;-76
2022/06/16 07:21:16;;;;;;;6.38;4.57;;;23.10;88.20;;;;;;4974980;28;20054;-77
2022/06/16 07:23:42;;;;;;;8.40;4.53;;;23.10;88.40;;;;;;4957006;28;20016;-77
2022/06/16 07:26:09;;;;;;;4.90;4.03;;;23.10;88.20;;;;;;4961093;28;20117;-78
2022/06/16 07:28:34;;;;;;;5.72;4.20;;;23.20;88.30;;;;;;4960207;28;20031;-75
2022/06/16 07:31:00;;;;;;;9.68;4.30;;;23.40;88.00;;;;;;4959501;28;20384;-76
2022/06/16 07:33:26;;;;;;;4.60;4.10;;;23.60;88.40;;;;;;4954541;28;20039;-76
2022/06/16 07:35:53;;;;;;;8.15;4.32;;;23.60;88.10;;;;;;4960188;28;20074;-75
2022/06/16 07:38:20;;;;;;;6.40;4.18;;;23.60;87.60;;;;;;4953115;28;20027;-75
2022/06/16 07:40:49;;;;;;;7.75;4.60;;;23.60;87.40;;;;;;4972836;28;20066;-75
2022/06/16 07:43:18;;;;;;;5.72;4.18;;;23.60;87.50;;;;;;4960853;28;20109;-76
2022/06/16 07:45:45;;;;;;;4.43;3.78;;;23.60;87.40;;;;;;4971991;28;20019;-75
2022/06/16 07:48:11;;;;;;;6.15;3.85;;;23.70;87.60;;;;;;4958146;28;20031;-76
2022/06/16 07:50:37;;;;;;;6.90;4.30;;;23.70;88.10;;;;;;4957313;28;20030;-78
2022/06/16 07:53:07;;;;;;;8.52;4.90;;;23.70;88.30;;;;;;4978971;28;20439;-77
2022/06/16 07:55:33;;;;;;;10.00;4.55;;;23.70;88.40;;;;;;4958323;28;20516;-76
2022/06/16 07:57:59;;;;;;;5.75;4.70;;;23.70;89.10;;;;;;4971984;28;20041;-75
2022/06/16 08:00:31;;;;;;;6.05;4.32;;;23.70;89.10;;;;;;4962485;28;20075;-74
2022/06/16 08:02:57;;;;;;;6.60;4.43;;;23.60;88.70;;;;;;4956960;28;20550;-75
2022/06/16 08:05:23;;;;;;;6.60;4.05;;;23.80;89.00;;;;;;4958814;28;20022;-75
2022/06/16 08:07:48;;;;;;;7.05;4.85;;;24.00;89.30;;;;;;4958204;28;20089;-77
2022/06/16 08:10:18;;;;;;;8.73;4.72;;;24.10;88.50;;;;;;4952840;28;20050;-77
2022/06/16 08:12:43;;;;;;;6.68;4.68;;;24.20;87.30;;;;;;4968811;28;20050;-75
2022/06/16 08:15:10;;;;;;;6.03;4.63;;;24.20;87.40;;;;;;4961062;28;20455;-77
2022/06/16 08:17:39;;;;;;;8.18;4.30;;;24.40;87.20;;;;;;4945636;28;20114;-76
2022/06/16 08:20:07;;;;;;;5.40;3.63;;;24.50;86.80;;;;;;4962992;28;20031;-76
2022/06/16 08:22:33;;;;;;;7.88;4.68;;;24.60;86.50;;;;;;4952737;28;20047;-76
2022/06/16 08:24:59;;;;;;;6.55;4.10;;;24.80;85.80;;;;;;4956243;28;20022;-74
2022/06/16 08:27:33;;;;;;;6.97;4.07;;;24.90;85.60;;;;;;4957395;28;20121;-75
2022/06/16 08:29:59;;;;;;;;;;;25.00;85.00;;;;;;4960314;28;20090;-75
2022/06/16 08:32:25;;;;;;;12.27;4.25;;;25.20;84.30;;;;;;4964908;28;20001;-76
2022/06/16 08:34:51;;;;;;;6.50;4.15;;;25.30;83.90;;;;;;4954575;28;20130;-79
2022/06/16 08:37:17;;;;;;;8.85;4.10;;;25.40;83.80;;;;;;4959260;28;20035;-77
2022/06/16 08:39:43;;;;;;;9.57;3.67;;;25.50;83.10;;;;;;4956976;28;20035;-74
2022/06/16 08:42:35;;;;;;;6.60;4.03;;;25.60;82.70;;;;;;4976354;28;20395;-76
2022/06/16 08:45:19;;;;;;;9.57;3.95;;;25.80;80.30;;;;;;4976073;28;20392;-77
2022/06/16 08:48:04;;;;;;;6.15;4.30;;;25.80;79.60;;;;;;4959514;28;20034;-77
2022/06/16 08:50:37;;;;;;;8.75;3.78;;;25.80;80.40;;;;;;4970417;28;20058;-77
2022/06/16 08:53:26;;;;;;;6.72;3.80;;;25.80;78.50;;;;;;4951250;28;21633;-78
2022/06/16 08:55:58;;;;;;;3.38;3.08;;;25.90;78.20;;;;;;4958845;28;20512;-76
2022/06/16 08:58:53;;;;;;;7.80;4.18;;;25.90;76.00;;;;;;4954517;28;20031;-77
2022/06/16 09:01:35;;;;;;;4.38;3.95;;;26.00;77.20;;;;;;4963976;28;20979;-76
2022/06/16 09:04:11;;;;;;;8.02;3.38;;;26.00;78.10;;;;;;4955003;28;20102;-77
2022/06/16 09:06:42;;;;;;;4.78;3.72;;;26.10;75.70;;;;;;4955602;28;20035;-78
2022/06/16 09:09:14;;;;;;;5.15;3.72;;;26.10;75.20;;;;;;4950759;28;20031;-78
2022/06/16 09:11:46;;;;;;;4.38;3.17;;;26.00;73.70;;;;;;4961100;28;20465;-76
2022/06/16 09:17:51;;;;;;;6.88;3.30;;;25.90;70.40;;;;;;4951963;28;20449;-78
2022/06/16 09:20:30;;;;;;;11.63;3.70;;;26.00;70.20;;;;;;4969001;28;20022;-78
2022/06/16 09:23:03;;;;;;;4.88;3.22;;;26.00;71.10;;;;;;4945722;28;20164;-78
2022/06/16 09:25:54;;;;;;;6.13;3.40;;;26.00;70.20;;;;;;4970815;28;20120;-78
2022/06/16 09:28:35;;;;;;;9.38;4.10;;;25.90;70.90;;;;;;4991859;28;20030;-77
2022/06/16 09:31:05;;;;;;;3.80;3.08;;;26.00;71.90;;;;;;4992002;28;20072;-77
2022/06/16 09:33:39;;;;;;;5.95;3.67;;;26.10;71.20;;;;;;5002336;28;20034;-76
2022/06/16 09:36:18;;;;;;;5.93;3.90;;;26.10;71.10;;;;;;4990758;28;20052;-78
2022/06/16 09:38:59;;;;;;;5.05;3.55;;;26.20;71.20;;;;;;4997972;28;20105;-77
2022/06/16 09:44:26;;;;;;;4.43;3.78;;;26.30;71.50;;;;;;4998668;28;20037;-78
2022/06/16 09:46:57;;;;;;;8.43;3.92;;;26.40;72.40;;;;;;4993892;28;20026;-78
2022/06/16 09:49:29;;;;;;;6.25;4.10;;;26.40;72.70;;;;;;4988433;28;20089;-75
2022/06/16 09:52:03;;;;;;;6.10;4.53;;;26.50;72.80;;;;;;4987794;28;20037;-78
2022/06/16 09:54:41;;;;;;;4.20;3.85;;;26.50;72.90;;;;;;4988256;28;20463;-77
2022/06/16 09:57:24;;;;;;;5.05;3.33;;;26.50;72.10;;;;;;4991460;28;20045;-78
2022/06/16 10:00:20;;;;;;;7.25;3.60;;;26.60;70.90;;;;;;4992213;28;20026;-76
2022/06/16 10:02:52;;;;;;;7.72;3.42;;;26.70;66.80;;;;;;4985715;28;20081;-78
2022/06/16 10:05:27;;;;;;;7.18;3.47;;;26.60;67.10;;;;;;4984999;28;20027;-77
2022/06/16 10:08:00;;;;;;;4.50;3.55;;;26.70;67.50;;;;;;4995181;28;20372;-77
2022/06/16 10:10:35;;;;;;;;;;;26.70;66.60;;;;;;4991894;28;20031;-79
2022/06/16 10:13:15;;;;;;;5.93;3.45;;;26.60;65.10;;;;;;4994050;28;20792;-78
2022/06/16 10:15:50;;;;;;;4.07;3.00;;;26.60;64.60;;;;;;4992350;28;20041;-78
2022/06/16 10:18:17;;;;;;;7.50;3.28;;;26.40;65.10;;;;;;4992778;28;20113;-78
2022/06/16 10:20:44;;;;;;;4.85;3.20;;;26.30;65.20;;;;;;4992616;28;20088;-78
2022/06/16 10:23:19;;;;;;;3.17;2.88;;;26.30;65.70;;;;;;4996478;28;20093;-78
2022/06/16 10:25:54;;;;;;;6.60;3.67;;;26.30;65.70;;;;;;5003062;28;20025;-78
2022/06/16 10:28:29;;;;;;;8.07;3.80;;;26.30;65.80;;;;;;4994476;28;20642;-78
2022/06/16 10:30:57;;;;;;;6.20;3.47;;;26.30;65.80;;;;;;4991337;28;20031;-77
2022/06/16 10:33:31;;;;;;;5.35;3.78;;;26.40;66.20;;;;;;4992710;28;20152;-79
2022/06/16 10:36:02;;;;;;;5.22;3.63;;;26.40;65.70;;;;;;4982805;28;20038;-75
2022/06/16 10:38:39;;;;;;;5.82;3.28;;;26.40;65.50;;;;;;4987267;28;20034;-75
2022/06/16 10:41:23;;;;;;;10.05;3.90;;;26.40;65.20;;;;;;5013154;28;20030;-75
2022/06/16 10:43:53;;;;;;;8.50;3.85;;;26.40;65.40;;;;;;4992807;28;20532;-75
2022/06/16 10:46:29;;;;;;;8.20;4.50;;;26.40;65.60;;;;;;4987864;28;20037;-76
2022/06/16 10:49:00;;;;;;;6.63;4.20;;;26.40;65.20;;;;;;4988070;28;20026;-75
2022/06/16 10:51:29;;;;;;;6.13;2.85;;;26.50;65.50;;;;;;5002899;28;20064;-77
2022/06/16 10:54:20;;;;;;;11.90;3.20;;;26.60;65.20;;;;;;4992477;28;20538;-76
2022/06/16 10:56:46;;;;;;;4.13;2.95;;;26.60;64.80;;;;;;4998297;28;20034;-78
2022/06/16 10:59:24;;;;;;;3.25;2.95;;;26.60;64.90;;;;;;5000792;28;20038;-77
2022/06/16 11:02:11;;;;;;;5.95;2.97;;;26.70;65.00;;;;;;4993359;28;20034;-77
2022/06/16 11:04:50;;;;;;;4.53;2.95;;;26.80;64.20;;;;;;5003049;28;20032;-74
2022/06/16 11:07:20;;;;;;;6.85;3.20;;;26.80;63.80;;;;;;5003634;28;20038;-74
2022/06/16 11:09:46;;;;;;;4.95;3.17;;;26.80;63.90;;;;;;4990677;28;20101;-75
2022/06/16 11:12:22;;;;;;;8.43;3.10;;;26.70;64.10;;;;;;4987304;28;20266;-73
2022/06/16 11:14:59;;;;;;;5.20;3.22;;;26.80;64.10;;;;;;4997797;28;20034;-75
2022/06/16 11:17:42;;;;;;;7.35;3.33;;;26.90;64.60;;;;;;4985449;28;20030;-74
2022/06/16 11:20:26;;;;;;;7.72;3.40;;;27.00;63.30;;;;;;4989475;28;20427;-72
2022/06/16 11:22:53;;;;;;;6.88;3.30;;;27.00;62.70;;;;;;4987101;28;20061;-74
2022/06/16 11:25:35;;;;;;;4.85;3.20;;;27.00;62.80;;;;;;4993574;28;20026;-74
2022/06/16 11:28:06;;;;;;;6.45;3.72;;;27.10;62.30;;;;;;4994490;28;20045;-74
2022/06/16 11:30:43;;;;;;;4.18;3.22;;;27.10;62.90;;;;;;4997209;28;20027;-75
2022/06/16 11:36:23;;;;;;;4.45;3.25;;;27.10;62.20;;;;;;4991084;28;20092;-74
2022/06/16 11:39:34;;;;;;;3.83;3.40;;;27.10;63.00;;;;;;4989065;28;20042;-74
2022/06/16 11:41:59;;;;;;;3.90;2.80;;;27.20;61.90;;;;;;4998715;28;20114;-74
2022/06/16 11:45:02;;;;;;;5.15;3.15;;;27.40;61.50;;;;;;4990339;28;20035;-73
2022/06/16 11:47:41;;;;;;;7.30;2.97;;;27.60;61.60;;;;;;4988804;28;20055;-75
2022/06/16 11:50:26;;;;;;;5.10;3.33;;;27.70;60.20;;;;;;4978544;28;20660;-75
2022/06/16 11:52:52;;;;;;;5.20;3.15;;;27.70;60.20;;;;;;5001067;28;20030;-74
2022/06/16 11:55:38;;;;;;;5.45;3.28;;;27.70;61.60;;;;;;4988405;28;20041;-73
2022/06/16 11:58:23;;;;;;;3.70;2.65;;;27.60;60.80;;;;;;5001329;28;20061;-74
2022/06/16 12:01:07;;;;;;;4.53;3.22;;;27.60;61.10;;;;;;4989741;28;20469;-74
2022/06/16 12:03:57;;;;;;;6.20;3.47;;;27.50;60.60;;;;;;4990349;28;20030;-74
2022/06/16 12:06:23;;;;;;;7.38;3.25;;;27.50;60.80;;;;;;4996269;28;20112;-74
2022/06/16 12:09:10;;;;;;;5.47;3.42;;;27.50;60.20;;;;;;4990209;28;20454;-74
2022/06/16 12:12:11;;;;;;;3.08;2.78;;;27.50;60.70;;;;;;4992585;28;20116;-76
2022/06/16 12:15:05;;;;;;;4.75;3.08;;;27.50;60.60;;;;;;5002661;28;20072;-73
2022/06/16 12:17:37;;;;;;;;;;;27.50;60.80;;;;;;4988336;28;20038;-75
2022/06/16 12:20:53;;;;;;;7.18;2.75;;;27.50;61.40;;;;;;4989318;28;20259;-75
2022/06/16 12:23:33;;;;;;;3.45;3.05;;;27.60;61.00;;;;;;4912054;29;20028;-75
2022/06/16 12:26:06;;;;;;;6.00;3.50;;;27.60;61.60;;;;;;4994822;28;20519;-78
2022/06/16 12:28:52;;;;;;;6.03;3.63;;;27.80;61.20;;;;;;4987654;28;20034;-76
2022/06/16 12:31:31;;;;;;;6.40;3.28;;;27.80;61.80;;;;;;4985671;28;20038;-77
2022/06/16 12:34:00;;;;;;;6.97;3.67;;;27.80;60.40;;;;;;4992120;28;20042;-75
2022/06/16 12:36:34;;;;;;;6.68;3.20;;;27.80;60.70;;;;;;4980788;28;20129;-75
2022/06/16 12:39:41;;;;;;;5.80;3.33;;;27.80;61.10;;;;;;4979111;28;20057;-75
2022/06/16 12:42:11;;;;;;;4.57;2.70;;;27.80;60.50;;;;;;4996226;28;20026;-77
2022/06/16 12:44:49;;;;;;;3.78;2.80;;;27.80;58.70;;;;;;4994656;28;20028;-76
2022/06/16 12:47:36;;;;;;;4.93;3.05;;;27.70;58.00;;;;;;5006321;28;20034;-75
2022/06/16 12:50:06;;;;;;;4.75;2.60;;;27.60;57.20;;;;;;4992057;28;20546;-74
2022/06/16 12:52:59;;;;;;;8.40;3.15;;;27.50;57.70;;;;;;4997907;28;20045;-75
2022/06/16 12:55:26;;;;;;;2.88;2.35;;;27.50;58.10;;;;;;4995959;28;20034;-75
2022/06/16 12:58:02;;;;;;;4.20;2.65;;;27.50;57.80;;;;;;5001136;28;20038;-74
2022/06/16 13:00:33;;;;;;;3.17;2.88;;;27.50;57.20;;;;;;4993807;28;20141;-75
2022/06/16 13:03:12;;;;;;;4.00;2.90;;;27.50;58.40;;;;;;4994802;28;20021;-75
2022/06/16 13:05:38;;;;;;;5.82;3.08;;;27.50;58.10;;;;;;4996254;28;20493;-75
2022/06/16 13:08:05;;;;;;;5.22;3.30;;;27.40;58.30;;;;;;4993945;28;20046;-74
2022/06/16 13:10:46;;;;;;;5.68;2.83;;;27.40;58.40;;;;;;4994142;28;20383;-74
2022/06/16 13:13:22;;;;;;;5.28;2.90;;;27.40;57.90;;;;;;4987563;28;20495;-75
2022/06/16 13:15:54;;;;;;;4.18;2.50;;;27.50;57.10;;;;;;4992252;28;20495;-75
2022/06/16 13:18:25;;;;;;;6.32;2.30;;;27.40;54.80;;;;;;4993202;28;20431;-75
2022/06/16 13:20:59;;;;;;;6.03;2.90;;;27.40;54.10;;;;;;4992676;28;20026;-74
2022/06/16 13:23:37;;;;;;;4.65;2.30;;;27.40;54.90;;;;;;4995789;28;20038;-74
2022/06/16 13:26:16;;;;;;;4.47;2.83;;;27.40;55.40;;;;;;4991293;28;20026;-75
2022/06/16 13:28:50;;;;;;;5.47;2.85;;;27.40;57.40;;;;;;5010470;28;20042;-74
2022/06/16 13:31:56;;;;;;;2.92;2.47;;;27.40;57.30;;;;;;4993456;28;20022;-74
2022/06/16 13:34:49;;;;;;;4.13;2.80;;;27.50;57.50;;;;;;4998906;28;20030;-74
2022/06/16 13:37:41;;;;;;;5.07;2.55;;;27.50;54.60;;;;;;4986195;28;20029;-76
2022/06/16 13:40:06;;;;;;;4.32;2.85;;;27.60;52.40;;;;;;4993469;28;20105;-75
2022/06/16 13:42:56;;;;;;;5.95;2.38;;;27.60;53.20;;;;;;4991353;28;20101;-74